Latest Weather Observations for Glen Innes Airport

IDN60801

Issued at 7:32 pm EDT Friday 20 October 2017 (issued every 30 minutes, with the page automatically refreshed every 10 minutes)

About weather observations | Map of weather stations | Latest weather observations for NSW | Other Formats
Station Details ID: 056243 Name: GLEN INNES AIRPORT AWS Lat: -29.68 Lon: 151.69 Height: 1044.3 m
Data from the previous 72 hours. | See also: Recent months at Glen Innes Airport
Date/Time
EDT
Temp
°C
App
Temp
°C
Dew
Point
°C
Rel
Hum
%
Delta-T
°C
Wind Press
QNH
hPa
Press
MSL
hPa
Rain since
9am
mm
Dir  Spd
km/h
Gust
km/h
Spd
kts
Gust
kts
20/07:30pm 14.6 14.3 13.3 92 0.8 WNW 7 9 4 5 1020.6 1017.9 0.2
20/07:08pm 14.6 14.4 13.0 90 0.9 NNE 6 7 3 4 1020.5 1017.7 0.2
20/07:00pm 14.7 14.5 12.9 89 1.0 N 6 9 3 5 1020.5 1017.7 0.2
20/06:30pm 15.0 13.5 13.2 89 1.1 WSW 13 15 7 8 1021.0 1018.3 0.0
20/06:24pm 15.0 13.5 13.2 89 1.1 SW 13 17 7 9 1021.0 1018.3 0.0
20/06:22pm 15.0 13.5 13.2 89 1.1 SW 13 17 7 9 1021.0 1018.3 0.0
20/06:07pm 15.2 13.8 13.4 89 1.1 WSW 13 17 7 9 1020.8 1018.1 0.0
20/06:00pm 15.2 13.4 13.2 88 1.2 WSW 15 20 8 11 1020.8 1018.1 0.0
20/05:30pm 16.1 13.5 13.2 83 1.7 WSW 19 24 10 13 1020.9 1018.2 0.0
20/05:00pm 16.8 14.5 13.1 79 2.2 WSW 17 20 9 11 1020.7 1018.0 0.0
20/04:30pm 17.1 14.4 12.8 76 2.5 WSW 19 24 10 13 1020.7 1018.0 0.0
20/04:00pm 17.4 15.0 12.7 74 2.7 WSW 17 22 9 12 1020.8 1018.1 0.0
20/03:30pm 18.1 15.5 12.1 68 3.5 W 17 24 9 13 1021.0 1018.3 0.0
20/03:00pm 18.3 15.8 12.3 68 3.5 WSW 17 24 9 13 1021.5 1018.8 0.0
20/02:30pm 18.8 16.1 11.6 63 4.2 W 17 22 9 12 1021.9 1019.2 0.0
20/02:00pm 18.9 17.1 12.2 65 3.9 W 13 17 7 9 1022.4 1019.7 0.0
20/01:30pm 19.1 17.2 11.7 62 4.3 W 13 20 7 11 1022.9 1020.2 0.0
20/01:00pm 18.6 16.4 12.1 66 3.8 WSW 15 20 8 11 1023.3 1020.6 0.0
20/12:30pm 18.8 16.1 11.6 63 4.2 W 17 22 9 12 1023.4 1020.7 0.0
20/12:00pm 17.9 14.2 11.5 66 3.7 W 22 28 12 15 1023.7 1021.0 0.0
20/11:30am 18.2 15.1 11.5 65 3.9 WSW 19 28 10 15 1024.0 1021.4 0.0
20/11:00am 18.6 15.6 12.6 68 3.5 WSW 20 28 11 15 1024.4 1021.7 0.0
20/10:30am 17.5 15.1 11.5 68 3.4 W 15 24 8 13 1024.5 1021.8 0.0
20/10:00am 17.7 15.2 12.4 71 3.1 W 17 26 9 14 1024.5 1021.8 0.0
20/09:30am 16.3 14.5 11.0 71 3.0 W 11 20 6 11 1024.6 1021.9 0.0
20/09:00am 16.2 14.7 11.8 75 2.5 WNW 11 19 6 10 1024.7 1022.0 0.0
20/08:55am 15.6 13.9 11.2 75 2.5 WNW 11 19 6 10 1024.8 1022.1 0.0
20/08:30am 14.4 13.5 10.8 79 2.0 NNW 6 9 3 5 1024.6 1021.9 0.0
20/08:25am 14.2 13.3 10.8 80 1.9 NW 6 9 3 5 1024.6 1021.9 0.0
20/08:04am 14.1 13.9 10.5 79 2.0 S 2 7 1 4 1024.7 1022.0 0.0
20/08:00am 14.2 14.4 10.4 78 2.1 CALM 0 0 0 0 1024.7 1022.0 0.0
20/07:30am 13.1 13.4 11.0 87 1.2 CALM 0 0 0 0 1024.7 1022.0 0.0
20/07:00am 12.0 12.1 10.2 89 1.0 CALM 0 0 0 0 1024.5 1021.8 0.0
20/06:30am 11.8 11.9 10.2 90 0.9 CALM 0 6 0 3 1024.1 1021.5 0.0
20/06:00am 11.8 10.6 10.2 90 0.9 NNW 7 9 4 5 1023.9 1021.2 0.0
20/05:30am 11.9 10.8 10.1 89 1.0 NE 6 11 3 6 1023.6 1020.9 0.0
20/05:00am 12.0 11.0 10.4 90 0.9 NNE 6 9 3 5 1023.5 1020.8 0.0
20/04:30am 12.0 10.9 10.6 91 0.8 NNE 7 9 4 5 1023.5 1020.8 0.0
20/04:00am 12.0 11.1 10.7 92 0.7 NE 6 7 3 4 1023.8 1021.1 0.0
20/03:30am 11.9 10.8 10.8 93 0.6 NE 7 11 4 6 1024.3 1021.6 0.0
20/03:00am 11.9 10.8 10.6 92 0.7 NNE 7 11 4 6 1024.7 1022.0 0.0
20/02:30am 11.7 10.8 10.8 94 0.5 ENE 6 7 3 4 1025.0 1022.4 0.0
20/02:00am 11.3 10.3 10.4 94 0.5 ESE 6 7 3 4 1025.4 1022.7 0.0
20/01:30am 11.4 9.9 10.5 94 0.5 ESE 9 13 5 7 1025.6 1022.9 0.0
20/01:00am 10.9 8.9 10.0 94 0.5 ESE 11 13 6 7 1025.7 1023.1 0.0
20/12:30am 10.9 9.2 9.8 93 0.6 ESE 9 11 5 6 1026.0 1023.4 0.0
20/12:00am 11.0 8.9 9.9 93 0.6 ESE 11 13 6 7 1026.4 1023.7 0.0
 
Date/Time
EDT
Temp
°C
App
Temp
°C
Dew
Point
°C
Rel
Hum
%
Delta-T
°C
Wind Press
QNH
hPa
Press
MSL
hPa
Rain since
9am
mm
Dir  Spd
km/h
Gust
km/h
Spd
kts
Gust
kts
19/11:30pm 10.3 8.0 9.1 92 0.6 SE 11 13 6 7 1026.6 1024.0 0.0
19/11:00pm 10.7 8.0 9.1 90 0.8 SE 13 15 7 8 1026.7 1024.1 0.0
19/10:30pm 9.7 7.2 8.1 90 0.8 SE 11 13 6 7 1026.7 1024.1 0.0
19/10:00pm 10.4 8.4 8.5 88 1.0 SE 9 11 5 6 1026.7 1024.1 0.0
19/09:30pm 11.6 9.4 9.2 85 1.3 E 11 11 6 6 1026.7 1024.1 0.0
19/09:00pm 12.7 11.0 9.9 83 1.5 ENE 9 13 5 7 1026.8 1024.2 0.0
19/08:30pm 12.9 11.2 9.9 82 1.6 ENE 9 13 5 7 1026.7 1024.1 0.0
19/08:00pm 13.4 11.3 9.8 79 1.9 ENE 11 13 6 7 1026.6 1024.0 0.0
19/07:30pm 14.2 12.1 9.6 74 2.5 ENE 11 15 6 8 1026.2 1023.6 0.0
19/07:00pm 15.7 13.4 10.5 71 2.9 E 13 17 7 9 1026.0 1023.4 0.0
19/06:30pm 17.5 14.1 10.6 64 3.9 ESE 19 22 10 12 1025.6 1022.9 0.0
19/06:00pm 18.7 15.4 10.8 60 4.5 E 19 24 10 13 1025.4 1022.7 0.0
19/05:30pm 19.2 17.1 9.9 55 5.2 NE 11 17 6 9 1025.3 1022.6 0.0
19/05:00pm 19.4 17.0 9.9 54 5.3 NE 13 19 7 10 1025.4 1022.7 0.0
19/04:30pm 19.8 17.5 10.5 55 5.3 ENE 13 20 7 11 1025.4 1022.7 0.0
19/04:00pm 19.9 18.1 9.5 51 5.8 ENE 9 17 5 9 1025.5 1022.8 0.0
19/03:30pm 19.9 17.5 10.0 53 5.6 ENE 13 20 7 11 1025.8 1023.2 0.0
19/03:00pm 19.6 17.4 10.9 57 5.0 E 13 20 7 11 1026.1 1023.5 0.0
19/02:30pm 19.3 16.8 9.8 54 5.3 E 13 20 7 11 1026.7 1024.1 0.0
19/02:00pm 19.1 16.1 10.6 58 4.8 E 17 28 9 15 1027.0 1024.4 0.0
19/01:30pm 18.6 15.5 10.4 59 4.6 ENE 17 24 9 13 1027.5 1024.9 0.0
19/01:00pm 18.7 15.8 11.0 61 4.4 E 17 28 9 15 1027.7 1025.1 0.0
19/12:30pm 18.0 14.4 9.9 59 4.5 ENE 19 28 10 15 1028.0 1025.4 0.0
19/12:00pm 17.7 14.6 11.5 67 3.5 ENE 19 33 10 18 1028.2 1025.7 0.0
19/11:30am 17.5 13.5 11.8 69 3.3 ESE 24 33 13 18 1028.3 1025.8 0.0
19/11:00am 16.8 13.1 9.5 62 4.0 E 19 32 10 17 1028.6 1026.0 0.0
19/10:30am 16.4 11.8 9.8 65 3.6 E 24 33 13 18 1028.7 1026.1 0.0
19/10:00am 15.8 11.2 9.7 67 3.3 E 24 33 13 18 1029.1 1026.6 0.0
19/09:30am 15.5 10.1 9.4 67 3.3 ENE 28 39 15 21 1029.0 1026.4 0.0
19/09:00am 14.1 9.0 9.3 73 2.6 E 26 33 14 18 1029.0 1026.4 0.0
19/08:31am 13.5 7.6 9.2 75 2.3 ENE 30 44 16 24 1028.6 1026.0 0.0
19/08:30am 13.4 7.2 9.3 76 2.2 ENE 32 44 17 24 1028.6 1026.0 0.0
19/08:00am 13.0 8.0 9.4 79 1.9 E 26 35 14 19 1028.6 1026.0 0.0
19/07:30am 12.5 7.5 9.5 82 1.6 E 26 37 14 20 1028.2 1025.7 0.0
19/07:00am 11.9 8.0 9.6 86 1.2 E 20 26 11 14 1028.0 1025.4 0.0
19/06:30am 11.3 6.5 9.0 86 1.2 E 24 30 13 16 1027.7 1025.1 0.0
19/06:00am 11.1 6.3 8.7 85 1.3 E 24 32 13 17 1027.4 1024.7 0.0
19/05:30am 11.5 7.1 9.1 85 1.3 E 22 32 12 17 1027.2 1024.6 0.0
19/05:00am 11.2 6.8 8.9 86 1.2 E 22 30 12 16 1027.0 1024.4 0.0
19/04:30am 11.4 7.5 9.3 87 1.1 ESE 20 26 11 14 1027.1 1024.5 0.0
19/04:00am 11.8 7.9 9.5 86 1.2 ESE 20 28 11 15 1027.0 1024.4 0.0
19/03:30am 11.7 7.5 9.6 87 1.1 E 22 33 12 18 1027.4 1024.7 0.0
19/03:00am 11.7 7.9 9.8 88 1.0 ESE 20 26 11 14 1027.6 1025.0 0.0
19/02:40am 11.6 7.7 9.5 87 1.1 ESE 20 30 11 16 1027.5 1024.9 0.0
19/02:30am 11.5 7.2 9.2 86 1.2 E 22 30 12 16 1027.7 1025.1 0.0
19/02:20am 11.5 6.5 9.4 87 1.1 E 26 35 14 19 1027.8 1025.2 0.0
19/02:00am 11.5 6.9 9.8 89 0.9 E 24 35 13 19 1028.1 1025.5 0.0
19/01:30am 11.6 7.0 9.5 87 1.1 E 24 32 13 17 1028.5 1025.9 0.0
19/01:06am 11.6 7.3 9.3 86 1.2 ESE 22 32 12 17 1028.7 1026.1 0.0
19/01:00am 11.5 7.2 9.2 86 1.2 ESE 22 30 12 16 1028.8 1026.2 0.0
19/12:56am 11.4 6.7 9.1 86 1.2 ESE 24 30 13 16 1028.7 1026.1 0.0
19/12:30am 11.2 6.8 8.9 86 1.2 ESE 22 30 12 16 1029.1 1026.6 0.0
19/12:22am 11.3 6.9 9.0 86 1.2 E 22 30 12 16 1029.1 1026.6 0.0
19/12:18am 11.3 6.5 8.9 85 1.3 E 24 32 13 17 1029.1 1026.6 0.0
19/12:00am 11.5 6.0 9.1 85 1.3 E 28 37 15 20 1029.0 1026.4 0.0
 
Date/Time
EDT
Temp
°C
App
Temp
°C
Dew
Point
°C
Rel
Hum
%
Delta-T
°C
Wind Press
QNH
hPa
Press
MSL
hPa
Rain since
9am
mm
Dir  Spd
km/h
Gust
km/h
Spd
kts
Gust
kts
18/11:30pm 11.8 6.8 9.5 86 1.2 ESE 26 37 14 20 1029.2 1026.7 0.0
18/11:27pm 11.8 7.1 9.4 85 1.3 ESE 24 33 13 18 1029.2 1026.7 0.0
18/11:00pm 11.6 6.5 9.2 85 1.3 ESE 26 35 14 19 1029.3 1026.8 0.0
18/10:34pm 11.6 5.8 9.3 86 1.2 E 30 37 16 20 1029.2 1026.7 0.0
18/10:30pm 11.7 5.9 9.3 85 1.3 E 30 37 16 20 1029.2 1026.7 0.0
18/10:00pm 11.9 6.5 9.6 86 1.2 E 28 37 15 20 1029.1 1026.6 0.0
18/09:48pm 12.0 7.0 9.6 85 1.3 ESE 26 35 14 19 1028.9 1026.3 0.0
18/09:34pm 12.0 7.0 9.6 85 1.3 ESE 26 33 14 18 1028.8 1026.2 0.0
18/09:30pm 12.0 6.6 9.6 85 1.3 E 28 33 15 18 1028.8 1026.2 0.0
18/09:00pm 12.2 7.2 9.6 84 1.4 ESE 26 33 14 18 1028.8 1026.2 0.0
18/08:56pm 12.2 7.2 9.6 84 1.4 E 26 33 14 18 1028.7 1026.1 0.0
18/08:30pm 12.4 7.5 9.8 84 1.4 ESE 26 35 14 19 1028.5 1025.9 0.0
18/08:00pm 12.3 7.3 9.5 83 1.5 E 26 35 14 19 1027.9 1025.3 0.0
18/07:49pm 12.5 7.2 9.7 83 1.5 E 28 37 15 20 1027.9 1025.3 0.0
18/07:30pm 12.5 7.5 9.7 83 1.5 E 26 32 14 17 1027.7 1025.1 0.0
18/07:00pm 12.8 7.9 9.8 82 1.6 E 26 35 14 19 1027.5 1024.9 0.0
18/06:59pm 12.8 7.9 9.8 82 1.6 E 26 35 14 19 1027.5 1024.9 0.0
18/06:30pm 13.2 7.6 10.0 81 1.7 E 30 39 16 21 1027.1 1024.5 0.0
18/06:04pm 13.6 9.1 10.2 80 1.9 ESE 24 35 13 19 1027.0 1024.4 0.0
18/06:00pm 13.8 9.7 10.2 79 2.0 ESE 22 30 12 16 1027.1 1024.5 0.0
18/05:30pm 14.1 8.5 10.3 78 2.1 E 30 41 16 22 1027.0 1024.4 0.0
18/05:00pm 14.6 9.5 10.6 77 2.2 E 28 35 15 19 1026.9 1024.3 0.0
18/04:30pm 14.5 8.7 10.7 78 2.1 E 32 43 17 23 1026.9 1024.3 0.0
18/04:00pm 14.9 9.1 10.7 76 2.3 E 32 41 17 22 1027.0 1024.4 0.0
18/03:30pm 14.5 8.7 10.9 79 2.0 E 32 43 17 23 1027.4 1024.7 0.0
18/03:00pm 14.4 7.9 10.4 77 2.2 E 35 44 19 24 1027.6 1025.0 0.0
18/02:57pm 14.2 7.7 10.4 78 2.1 E 35 43 19 23 1027.6 1025.0 0.0
18/02:30pm 15.3 8.5 10.7 74 2.6 ESE 37 50 20 27 1027.6 1025.0 0.0
18/02:00pm 14.5 8.3 11.5 82 1.7 E 35 50 19 27 1028.1 1025.5 0.0
18/01:45pm 14.3 8.4 11.1 81 1.8 ESE 33 43 18 23 1028.0 1025.4 0.0
18/01:30pm 14.7 8.4 11.1 79 2.0 E 35 48 19 26 1028.1 1025.5 0.0
18/01:22pm 15.1 8.5 11.3 78 2.1 E 37 46 20 25 1028.1 1025.5 0.0
18/01:00pm 15.5 9.7 11.5 77 2.3 E 33 41 18 22 1028.5 1025.9 0.0
18/12:30pm 14.3 8.6 11.1 81 1.8 ESE 32 41 17 22 1028.8 1026.2 0.0
18/12:00pm 14.5 8.6 11.1 80 1.9 E 33 44 18 24 1028.9 1026.3 0.0
18/11:30am 14.6 8.1 11.6 82 1.7 E 37 46 20 25 1028.9 1026.3 0.0
18/11:00am 14.2 6.6 10.6 79 2.0 E 41 52 22 28 1029.0 1026.4 0.0
18/10:30am 13.6 7.3 11.0 84 1.4 ESE 35 46 19 25 1029.1 1026.6 0.0
18/10:00am 12.9 6.4 10.3 84 1.4 ESE 35 46 19 25 1029.0 1026.4 0.0
18/09:30am 13.1 6.3 10.5 84 1.4 ESE 37 48 20 26 1028.8 1026.2 0.0
18/09:00am 13.2 6.9 10.9 86 1.3 E 35 46 19 25 1028.2 1025.7 0.0
18/08:30am 12.6 6.5 10.3 86 1.3 ESE 33 44 18 24 1027.8 1025.2 0.0
18/08:00am 11.7 6.1 10.1 90 0.9 ESE 30 41 16 22 1027.6 1025.0 0.0
18/07:30am 11.2 5.1 9.6 90 0.9 ESE 32 43 17 23 1027.5 1024.9 0.0
18/07:00am 11.0 5.5 9.3 89 0.9 ESE 28 35 15 19 1027.2 1024.6 0.0
18/06:30am 11.0 5.0 8.8 86 1.2 ESE 30 39 16 21 1027.0 1024.4 0.0
18/06:00am 11.0 4.5 8.9 87 1.1 ESE 33 41 18 22 1026.5 1023.8 0.0
18/05:30am 11.0 4.8 9.4 90 0.8 ESE 32 43 17 23 1025.7 1023.1 0.0
18/05:00am 11.2 5.1 9.6 90 0.9 ESE 32 43 17 23 1025.7 1023.1 0.0
18/04:30am 11.1 5.0 9.7 91 0.7 ESE 32 44 17 24 1025.9 1023.3 0.0
18/04:00am 11.0 4.2 9.4 90 0.8 ESE 35 43 19 23 1025.6 1022.9 0.0
18/03:30am 11.1 5.2 9.0 87 1.1 ESE 30 39 16 21 1025.7 1023.1 0.0
18/03:00am 11.0 4.1 8.9 87 1.1 ESE 35 48 19 26 1026.1 1023.5 0.0
18/02:30am 11.0 5.5 9.1 88 1.0 ESE 28 37 15 20 1026.4 1023.7 0.0
18/02:12am 11.0 5.0 8.8 86 1.2 ESE 30 41 16 22 1026.2 1023.6 0.0
18/02:00am 10.9 4.3 8.5 85 1.2 ESE 33 44 18 24 1026.1 1023.5 0.0
18/01:40am 10.7 4.0 8.3 85 1.2 ESE 33 46 18 25 1026.5 1023.8 0.0
18/01:30am 10.6 3.9 8.2 85 1.2 ESE 33 44 18 24 1026.7 1024.1 0.0
18/01:00am 10.9 3.2 8.5 85 1.2 ESE 39 52 21 28 1027.0 1024.4 0.0
18/12:44am 11.0 3.7 8.8 86 1.2 ESE 37 52 20 28 1027.0 1024.4 0.0
18/12:43am 10.9 3.2 8.7 86 1.2 ESE 39 52 21 28 1027.1 1024.5 0.0
18/12:30am 11.1 3.8 8.8 86 1.2 ESE 37 52 20 28 1027.4 1024.7 0.0
18/12:00am 10.9 4.0 8.8 87 1.1 ESE 35 44 19 24 1027.2 1024.6 0.0
 
Date/Time
EDT
Temp
°C
App
Temp
°C
Dew
Point
°C
Rel
Hum
%
Delta-T
°C
Wind Press
QNH
hPa
Press
MSL
hPa
Rain since
9am
mm
Dir  Spd
km/h
Gust
km/h
Spd
kts
Gust
kts
17/11:30pm 11.0 4.2 9.1 88 1.0 ESE 35 50 19 27 1027.6 1025.0 0.0
17/11:00pm 11.1 4.3 9.2 88 1.0 ESE 35 46 19 25 1027.2 1024.6 0.0
17/10:30pm 11.0 3.4 9.1 88 1.0 ESE 39 52 21 28 1027.1 1024.5 0.0
17/10:00pm 11.2 4.1 9.6 90 0.8 ESE 37 50 20 27 1026.8 1024.2 0.0
17/09:30pm 11.3 4.9 9.2 87 1.1 ESE 33 44 18 24 1026.7 1024.1 0.0
17/09:00pm 11.3 4.5 9.4 88 1.0 ESE 35 48 19 26 1026.6 1024.0 0.0
17/08:30pm 11.8 5.4 9.4 85 1.3 ESE 33 48 18 26 1026.2 1023.6 0.0
17/08:00pm 12.0 4.8 9.0 82 1.6 ESE 37 50 20 27 1025.7 1023.1 0.0

Other Formats:

Comma delimited format used in spreadsheet applications
http://www.bom.gov.au/fwo/IDN60801/IDN60801.94588.axf

JavaScript Object Notation format (JSON) in row-major order
http://www.bom.gov.au/fwo/IDN60801/IDN60801.94588.json